Airfield :







YOU CAN JOIN US ON...

 
LOGIN :

Register | Disclaimer

   EN    FR    IT 

 









Legend :    VFR   Marginal VFR   IFR   Intensive IFR   Very Intensive IFR
Visi :
Ceiling :
>= 8 km
>= 3000ft
5 to 8 km
1000 to 3000 ft
1500m to 5 km
500 to 1000 ft
800 to 1500m
200 to 500 ft
< 800m
< 200 ft
Symbols :   Thunderstorms  Fog  Heavy snow  Heavy precipitations  Wind > 20 kt






- Airport Elevation : 232 ft
- IATA code : YQM


CYQM - Greater Moncton International

CURRENT METAR :
  • 172300Z 21010G15KT 15SM FEW032 SCT053 SCT078 18/11 A2980 RMK CU1SC3AC1 CU TR SLP093 DENSITY ALT 800FT

EXPIRED METARs :
  • 172200Z 21010G18KT 15SM FEW036 SCT085 19/11 A2978 RMK CU1AC3 SLP086 DENSITY ALT 1000FT
  • 172100Z 24010G18KT 15SM FEW050TCU BKN092 19/11 A2977 RMK TCU2AC4 SLP083 DENSITY ALT 1000FT
  • 172040Z 23010KT 15SM FEW048TCU BKN072 18/11 A2977 RMK TCU2AC4 SH E-SE SLP083 DENSITY ALT 900FT
  • 172016Z 23013KT 15SM -SHRA BKN055TCU BKN080 19/11 A2976 RMK TCU6AC1 SLP080 DENSITY ALT 900FT

TAF TAF CYQM
Valid from the 17 at 18:00 until the 18 at 18:00 UTC


171738Z 1718/1818 23012G22KT P6SM BKN050
TEMPO 1718/1722 P6SM -SHRA
FM180100 21010KT P6SM SCT060
FM180300 22006KT P6SM FEW060
BECMG 1816/1818 21012KT RMK NXT FCST BY 180000Z
CZQM FIR / North America



MET'MAP, your aeronautical weather chart ! - Copyright ORBIFLY December 2007 - Disclaimer

ORBIFLY MET'MAP TEAM :

Programming & Development : Alexandra Zaïnal
Concept & original design : Baudouin d'Aumeries
Assistance for programming : Marc-Olivier Méhu
Technical & hardware support : Manuel Goepfert

Contact : metmap@orbifly.com




SOURCES & CREDITS :

   NOAA